createdAt,value
2023-03-11T00:00:55.715Z,92.10
2023-03-11T00:03:27.668Z,92.10
2023-03-11T00:05:56.029Z,92.00
2023-03-11T00:08:25.532Z,92.20
2023-03-11T00:10:56.646Z,92.20
2023-03-11T00:13:23.836Z,91.70
2023-03-11T00:15:57.537Z,92.40
2023-03-11T00:18:27.209Z,92.10
2023-03-11T00:20:56.890Z,92.10
2023-03-11T00:23:25.684Z,92.20
2023-03-11T00:25:53.019Z,92.30
2023-03-11T00:28:22.221Z,92.20
2023-03-11T00:30:48.987Z,92.10
2023-03-11T00:33:16.974Z,92.20
2023-03-11T00:35:44.752Z,92.10
2023-03-11T00:38:18.819Z,92.10
2023-03-11T00:40:48.362Z,92.10
2023-03-11T00:43:16.431Z,92.20
2023-03-11T00:45:43.496Z,92.20
2023-03-11T00:48:12.199Z,91.90
2023-03-11T00:50:39.024Z,91.90
2023-03-11T00:53:07.357Z,92.20
2023-03-11T00:55:35.573Z,92.30
2023-03-11T00:58:05.894Z,92.30
2023-03-11T01:00:33.651Z,92.20
2023-03-11T01:03:00.736Z,91.90
2023-03-11T01:05:32.786Z,92.40
2023-03-11T01:08:00.324Z,92.50
2023-03-11T01:10:29.186Z,92.50
2023-03-11T01:12:56.058Z,92.60
2023-03-11T01:15:29.717Z,92.60
2023-03-11T01:17:56.520Z,92.70
2023-03-11T01:20:23.417Z,92.70
2023-03-11T01:22:50.355Z,92.80
2023-03-11T01:25:20.080Z,92.90
2023-03-11T01:27:47.322Z,92.50
2023-03-11T01:30:23.909Z,92.50
2023-03-11T01:32:53.004Z,92.90
2023-03-11T01:35:24.130Z,92.80
2023-03-11T01:37:52.420Z,92.80
2023-03-11T01:40:36.204Z,92.90
2023-03-11T01:43:06.544Z,92.70
2023-03-11T01:46:05.031Z,93.00
2023-03-11T01:48:31.834Z,92.70
2023-03-11T01:50:59.412Z,93.20
2023-03-11T01:53:26.348Z,93.30
2023-03-11T01:55:53.267Z,93.40
2023-03-11T01:58:32.857Z,93.50
2023-03-11T02:01:01.299Z,93.50
2023-03-11T02:03:34.042Z,93.50
2023-03-11T02:06:05.962Z,93.10
2023-03-11T02:08:36.856Z,93.40
2023-03-11T02:11:08.269Z,93.80
2023-03-11T02:13:36.302Z,94.00
2023-03-11T02:16:04.495Z,93.90
2023-03-11T02:18:32.117Z,94.00
2023-03-11T02:21:14.051Z,94.00
2023-03-11T02:24:04.614Z,94.00
2023-03-11T02:26:51.564Z,94.00
2023-03-11T02:29:21.201Z,93.40
2023-03-11T02:31:49.768Z,93.70
2023-03-11T02:34:26.526Z,94.10
2023-03-11T02:36:53.290Z,93.90
2023-03-11T02:39:36.756Z,93.40
2023-03-11T02:42:13.916Z,94.00
2023-03-11T02:44:44.374Z,94.20
2023-03-11T02:47:11.532Z,94.20
2023-03-11T02:49:38.946Z,94.30
2023-03-11T02:52:06.321Z,94.40
2023-03-11T02:54:33.600Z,94.40
2023-03-11T02:57:00.338Z,94.40
2023-03-11T03:01:56.204Z,94.20
2023-03-11T03:04:23.077Z,93.70
2023-03-11T03:06:50.413Z,94.50
2023-03-11T03:09:17.198Z,94.40
2023-03-11T03:11:43.955Z,94.50
2023-03-11T03:14:10.706Z,94.50
2023-03-11T03:16:37.501Z,94.00
2023-03-11T03:19:04.464Z,94.60
2023-03-11T03:21:31.216Z,94.70
2023-03-11T03:23:57.984Z,94.60
2023-03-11T03:26:24.796Z,94.70
2023-03-11T03:28:52.260Z,94.00
2023-03-11T03:31:19.183Z,94.00
2023-03-11T03:33:46.010Z,94.70
2023-03-11T03:36:15.193Z,94.80
2023-03-11T03:38:42.409Z,93.80
2023-03-11T03:41:09.959Z,94.70
2023-03-11T03:43:36.782Z,94.70
2023-03-11T03:46:05.554Z,94.30
2023-03-11T03:48:33.354Z,94.80
2023-03-11T03:51:10.116Z,94.90
2023-03-11T03:53:37.426Z,94.80
2023-03-11T03:56:06.240Z,94.90
2023-03-11T03:58:33.826Z,94.90
2023-03-11T04:01:00.881Z,95.00
2023-03-11T04:03:28.564Z,95.00
2023-03-11T04:06:05.032Z,95.70
2023-03-11T04:08:31.866Z,95.00
2023-03-11T04:10:58.819Z,95.10
2023-03-11T04:13:25.627Z,94.60
2023-03-11T04:15:52.345Z,95.00
2023-03-11T04:18:19.110Z,95.10
2023-03-11T04:20:46.521Z,94.20
2023-03-11T04:23:13.305Z,95.00
2023-03-11T04:25:40.071Z,95.00
2023-03-11T04:28:06.873Z,94.40
2023-03-11T04:30:33.735Z,95.20
2023-03-11T04:33:00.481Z,95.10
2023-03-11T04:35:27.299Z,95.20
2023-03-11T04:37:54.228Z,95.30
2023-03-11T04:40:21.234Z,95.30
2023-03-11T04:42:48.965Z,95.00
2023-03-11T04:45:18.376Z,95.30
2023-03-11T04:47:48.904Z,94.90
2023-03-11T04:50:16.593Z,95.30
2023-03-11T04:52:43.356Z,95.40
2023-03-11T04:55:11.170Z,95.30
2023-03-11T05:00:10.676Z,94.50
2023-03-11T05:02:39.625Z,95.40
2023-03-11T05:05:09.436Z,95.30
2023-03-11T05:07:36.980Z,95.00
2023-03-11T05:10:05.105Z,95.20
2023-03-11T05:12:32.210Z,95.20
2023-03-11T05:14:58.990Z,94.10
2023-03-11T05:17:25.856Z,95.10
2023-03-11T05:19:55.736Z,95.20
2023-03-11T05:22:22.507Z,95.30
2023-03-11T05:24:49.876Z,95.30
2023-03-11T05:29:48.189Z,94.70
2023-03-11T05:32:15.409Z,95.40
2023-03-11T05:34:42.390Z,95.30
2023-03-11T05:37:09.470Z,94.40
2023-03-11T05:39:37.813Z,95.30
2023-03-11T05:42:09.745Z,95.00
2023-03-11T05:44:36.520Z,94.50
2023-03-11T05:47:04.908Z,95.50
2023-03-11T05:49:31.748Z,94.50
2023-03-11T05:51:59.014Z,95.50
2023-03-11T05:54:26.151Z,95.30
2023-03-11T05:56:52.996Z,94.60
2023-03-11T05:59:20.140Z,95.50
2023-03-11T06:01:46.974Z,95.80
2023-03-11T06:04:13.841Z,95.50
2023-03-11T06:06:41.535Z,94.70
2023-03-11T06:09:13.909Z,95.10
2023-03-11T06:11:41.275Z,94.90
2023-03-11T06:14:11.814Z,95.30
2023-03-11T06:16:38.643Z,95.30
2023-03-11T06:19:05.655Z,95.00
2023-03-11T06:21:32.892Z,95.30
2023-03-11T06:24:00.176Z,94.80
2023-03-11T06:26:27.000Z,95.00
2023-03-11T06:28:54.170Z,94.20
2023-03-11T06:31:25.545Z,94.30
2023-03-11T06:33:55.854Z,95.20
2023-03-11T06:36:23.591Z,95.30
2023-03-11T06:38:53.639Z,95.30
2023-03-11T06:41:20.764Z,95.20
2023-03-11T06:43:47.506Z,95.50
2023-03-11T06:46:19.796Z,95.60
2023-03-11T06:48:47.342Z,94.70
2023-03-11T06:51:14.310Z,95.20
2023-03-11T06:53:41.570Z,95.20
2023-03-11T06:56:13.060Z,95.30
2023-03-11T06:58:42.854Z,94.30
2023-03-11T07:01:25.133Z,95.10
2023-03-11T07:03:52.617Z,94.80
2023-03-11T07:06:23.944Z,95.20
2023-03-11T07:08:53.010Z,95.20
2023-03-11T07:11:25.710Z,95.10
2023-03-11T07:13:54.350Z,94.70
2023-03-11T07:16:28.189Z,94.80
2023-03-11T07:18:59.092Z,94.80
2023-03-11T07:21:25.831Z,93.90
2023-03-11T07:23:55.587Z,94.00
2023-03-11T07:26:24.477Z,93.70
2023-03-11T07:28:52.768Z,92.30
2023-03-11T07:31:24.303Z,94.20
2023-03-11T07:33:52.386Z,93.60
2023-03-11T07:36:23.298Z,92.60
2023-03-11T07:39:01.105Z,92.80
2023-03-11T07:41:32.003Z,94.30
2023-03-11T07:44:02.008Z,94.20
2023-03-11T07:46:29.921Z,92.90
2023-03-11T07:48:57.087Z,94.40
2023-03-11T07:51:29.106Z,94.00
2023-03-11T07:53:58.887Z,92.60
2023-03-11T07:56:32.689Z,94.10
2023-03-11T07:59:01.642Z,94.20
2023-03-11T08:01:36.188Z,94.10
2023-03-11T08:04:06.155Z,93.80
2023-03-11T08:06:36.098Z,90.90
2023-03-11T08:09:07.086Z,93.40
2023-03-11T08:11:34.193Z,93.30
2023-03-11T08:14:01.809Z,93.60
2023-03-11T08:16:28.848Z,93.50
2023-03-11T08:18:55.833Z,92.40
2023-03-11T08:21:28.431Z,92.60
2023-03-11T08:23:59.364Z,93.50
2023-03-11T08:26:26.650Z,93.10
2023-03-11T08:28:55.305Z,91.90
2023-03-11T08:31:30.158Z,93.20
2023-03-11T08:34:01.395Z,93.10
2023-03-11T08:36:29.014Z,91.70
2023-03-11T08:38:55.945Z,93.40
2023-03-11T08:41:23.022Z,93.40
2023-03-11T08:46:30.644Z,93.10
2023-03-11T08:49:01.047Z,93.40
2023-03-11T08:51:30.692Z,93.70
2023-03-11T08:53:58.346Z,93.60
2023-03-11T08:56:25.867Z,91.70
2023-03-11T08:58:52.815Z,93.30
2023-03-11T09:01:20.432Z,92.30
2023-03-11T09:03:47.504Z,93.00
2023-03-11T09:06:16.951Z,93.50
2023-03-11T09:08:45.848Z,92.50
2023-03-11T09:11:13.699Z,93.60
2023-03-11T09:13:42.264Z,92.90
2023-03-11T09:16:18.930Z,92.90
2023-03-11T09:18:46.082Z,92.60
2023-03-11T09:21:13.530Z,93.00
2023-03-11T09:23:43.999Z,92.40
2023-03-11T09:26:11.943Z,92.00
2023-03-11T09:28:39.708Z,91.10
2023-03-11T09:31:06.806Z,93.00
2023-03-11T09:33:41.314Z,92.50
2023-03-11T09:36:13.797Z,91.70
2023-03-11T09:38:41.785Z,90.60
2023-03-11T09:41:18.082Z,90.80
2023-03-11T09:44:09.317Z,91.10
2023-03-11T09:47:15.789Z,90.50
2023-03-11T09:50:07.680Z,89.30
2023-03-11T09:52:56.208Z,91.20
2023-03-11T09:55:46.881Z,90.40
2023-03-11T09:58:47.418Z,90.80
2023-03-11T10:01:44.548Z,90.70
2023-03-11T10:04:29.282Z,91.30
2023-03-11T10:06:57.452Z,90.00
2023-03-11T10:09:43.703Z,91.80
2023-03-11T10:13:00.026Z,91.00
2023-03-11T10:15:52.301Z,90.10
2023-03-11T10:19:02.416Z,91.60
2023-03-11T10:22:11.344Z,91.20
2023-03-11T10:25:25.292Z,92.00
2023-03-11T10:28:12.548Z,90.10
2023-03-11T10:30:52.492Z,91.60
2023-03-11T10:33:37.780Z,91.80
2023-03-11T10:36:12.737Z,90.10
2023-03-11T10:38:48.196Z,92.10
2023-03-11T10:41:43.912Z,91.80
2023-03-11T10:44:21.026Z,91.90
2023-03-11T10:46:47.862Z,91.30
2023-03-11T10:49:17.526Z,87.40
2023-03-11T10:51:52.746Z,90.90
2023-03-11T10:54:31.836Z,88.30
2023-03-11T10:57:02.144Z,89.00
2023-03-11T10:59:34.354Z,90.40
2023-03-11T11:02:26.130Z,90.90
2023-03-11T11:05:22.549Z,90.80
2023-03-11T11:07:53.209Z,90.90
2023-03-11T11:10:26.216Z,90.10
2023-03-11T11:13:08.070Z,90.00
2023-03-11T11:15:39.384Z,88.10
2023-03-11T11:18:21.857Z,90.20
2023-03-11T11:21:08.522Z,89.80
2023-03-11T11:23:49.767Z,86.70
2023-03-11T11:26:24.268Z,90.20
2023-03-11T11:29:09.701Z,90.40
2023-03-11T11:31:39.773Z,87.20
2023-03-11T11:34:29.560Z,90.20
2023-03-11T11:37:04.212Z,90.40
2023-03-11T11:39:51.499Z,90.90
2023-03-11T11:42:24.534Z,90.90
2023-03-11T11:45:30.622Z,90.10
2023-03-11T11:48:05.195Z,87.70
2023-03-11T11:50:44.836Z,90.00
2023-03-11T11:53:25.029Z,87.70
2023-03-11T11:55:54.809Z,89.20
2023-03-11T11:58:22.457Z,90.20
2023-03-11T12:01:50.021Z,89.40
2023-03-11T12:04:48.636Z,87.70
2023-03-11T12:07:35.366Z,87.70
2023-03-11T12:10:23.223Z,88.20
2023-03-11T12:13:36.288Z,90.60
2023-03-11T12:16:30.228Z,90.40
2023-03-11T12:19:10.405Z,90.70
2023-03-11T12:21:58.357Z,90.20
2023-03-11T12:24:27.719Z,88.10
2023-03-11T12:27:01.301Z,89.80
2023-03-11T12:29:43.468Z,89.40
2023-03-11T12:32:33.371Z,86.30
2023-03-11T12:35:20.552Z,87.00
2023-03-11T12:38:04.826Z,85.60
2023-03-11T12:40:59.307Z,87.40
2023-03-11T12:43:33.882Z,80.40
2023-03-11T12:46:13.352Z,87.50
2023-03-11T12:49:08.062Z,86.80
2023-03-11T12:51:34.770Z,85.20
2023-03-11T12:54:30.722Z,88.90
2023-03-11T12:57:17.359Z,84.90
2023-03-11T13:00:23.129Z,79.50
2023-03-11T13:03:31.752Z,85.30
2023-03-11T13:06:44.487Z,82.40
2023-03-11T13:09:17.132Z,84.00
2023-03-11T13:11:47.575Z,85.10
2023-03-11T13:14:28.361Z,86.60
2023-03-11T13:16:57.527Z,85.80
2023-03-11T13:19:26.922Z,86.40
2023-03-11T13:21:59.734Z,87.10
2023-03-11T13:24:26.506Z,87.50
2023-03-11T13:26:59.510Z,86.30
2023-03-11T13:30:06.723Z,86.70
2023-03-11T13:33:16.089Z,85.70
2023-03-11T13:35:54.152Z,86.30
2023-03-11T13:38:47.252Z,88.40
2023-03-11T13:41:24.759Z,82.00
2023-03-11T13:43:52.663Z,85.90
2023-03-11T13:46:38.387Z,86.00
2023-03-11T13:49:30.454Z,82.70
2023-03-11T13:51:59.407Z,85.90
2023-03-11T13:54:41.839Z,86.10
2023-03-11T13:57:25.420Z,86.30
2023-03-11T13:59:58.071Z,85.30
2023-03-11T14:02:27.487Z,82.90
2023-03-11T14:05:03.550Z,83.10
2023-03-11T14:07:38.556Z,84.60
2023-03-11T14:10:22.769Z,84.00
2023-03-11T14:12:49.885Z,83.70
2023-03-11T14:15:25.181Z,86.10
2023-03-11T14:17:54.148Z,84.80
2023-03-11T14:20:25.473Z,84.10
2023-03-11T14:22:55.927Z,79.30
2023-03-11T14:25:27.337Z,83.50
2023-03-11T14:27:58.999Z,77.70
2023-03-11T14:30:33.049Z,83.40
2023-03-11T14:33:20.542Z,81.30
2023-03-11T14:35:57.327Z,81.70
2023-03-11T14:38:28.817Z,79.50
2023-03-11T14:41:02.502Z,82.10
2023-03-11T14:43:37.812Z,82.80
2023-03-11T14:46:07.378Z,80.40
2023-03-11T14:48:40.078Z,83.10
2023-03-11T14:51:22.054Z,81.90
2023-03-11T14:54:27.861Z,83.40
2023-03-11T14:57:11.439Z,84.00
2023-03-11T14:59:40.155Z,82.80
2023-03-11T15:02:56.202Z,83.60
2023-03-11T15:05:45.864Z,81.50
2023-03-11T15:08:15.810Z,80.10
2023-03-11T15:11:03.447Z,83.80
2023-03-11T15:13:30.747Z,80.90
2023-03-11T15:15:59.986Z,84.30
2023-03-11T15:18:33.312Z,82.80
2023-03-11T15:21:12.663Z,82.60
2023-03-11T15:23:44.446Z,82.50
2023-03-11T15:26:30.681Z,83.70
2023-03-11T15:29:00.695Z,81.50
2023-03-11T15:31:36.187Z,85.00
2023-03-11T15:34:17.998Z,79.90
2023-03-11T15:37:18.570Z,81.50
2023-03-11T15:39:50.997Z,80.40
2023-03-11T15:42:22.952Z,81.40
2023-03-11T15:45:08.613Z,81.80
2023-03-11T15:47:36.483Z,81.60
2023-03-11T15:50:27.232Z,80.70
2023-03-11T15:52:58.117Z,79.10
2023-03-11T15:55:28.016Z,77.80
2023-03-11T15:58:06.708Z,82.50
2023-03-11T16:00:35.031Z,79.00
2023-03-11T16:03:01.991Z,82.10
2023-03-11T16:05:29.314Z,82.00
2023-03-11T16:07:56.096Z,84.90
2023-03-11T16:10:28.692Z,79.30
2023-03-11T16:12:56.808Z,82.30
2023-03-11T16:15:45.790Z,83.10
2023-03-11T16:18:12.936Z,80.20
2023-03-11T16:20:52.874Z,82.00
2023-03-11T16:23:36.188Z,78.90
2023-03-11T16:26:11.650Z,72.20
2023-03-11T16:28:39.271Z,80.10
2023-03-11T16:31:10.585Z,80.00
2023-03-11T16:33:37.430Z,80.60
2023-03-11T16:36:08.039Z,74.80
2023-03-11T16:38:50.339Z,80.60
2023-03-11T16:41:17.909Z,78.30
2023-03-11T16:43:45.095Z,81.00
2023-03-11T16:46:12.117Z,81.00
2023-03-11T16:48:38.914Z,81.80
2023-03-11T16:51:05.880Z,81.90
2023-03-11T16:53:32.656Z,82.00
2023-03-11T16:55:59.848Z,82.00
2023-03-11T17:00:54.155Z,80.20
2023-03-11T17:03:21.844Z,81.50
2023-03-11T17:05:49.267Z,77.20
2023-03-11T17:08:18.134Z,82.20
2023-03-11T17:10:46.535Z,82.40
2023-03-11T17:13:17.100Z,77.80
2023-03-11T17:15:45.744Z,82.90
2023-03-11T17:18:13.951Z,83.00
2023-03-11T17:20:43.550Z,80.60
2023-03-11T17:23:10.581Z,82.50
2023-03-11T17:25:41.660Z,83.30
2023-03-11T17:28:09.899Z,79.70
2023-03-11T17:33:08.396Z,79.20
2023-03-11T17:35:35.213Z,83.50
2023-03-11T17:38:02.059Z,83.90
2023-03-11T17:40:30.491Z,81.30
2023-03-11T17:45:24.470Z,83.90
2023-03-11T17:47:51.205Z,84.80
2023-03-11T17:50:18.331Z,84.60
2023-03-11T17:52:46.984Z,84.50
2023-03-11T17:55:13.800Z,84.60
2023-03-11T17:57:45.359Z,85.00
2023-03-11T18:00:14.897Z,85.10
2023-03-11T18:02:41.805Z,85.30
2023-03-11T18:05:09.400Z,85.30
2023-03-11T18:07:40.794Z,86.70
2023-03-11T18:10:09.431Z,85.70
2023-03-11T18:12:36.474Z,85.30
2023-03-11T18:15:08.170Z,85.80
2023-03-11T18:17:35.472Z,83.60
2023-03-11T18:20:02.692Z,86.20
2023-03-11T18:22:29.530Z,86.30
2023-03-11T18:24:56.309Z,84.10
2023-03-11T18:27:24.500Z,83.30
2023-03-11T18:29:51.951Z,83.60
2023-03-11T18:32:20.743Z,87.20
2023-03-11T18:34:51.251Z,86.60
2023-03-11T18:37:18.228Z,83.50
2023-03-11T18:39:44.983Z,86.60
2023-03-11T18:42:12.851Z,86.80
2023-03-11T18:44:40.529Z,86.90
2023-03-11T18:47:07.360Z,86.90
2023-03-11T18:49:34.143Z,87.10
2023-03-11T18:52:01.149Z,84.90
2023-03-11T18:54:28.212Z,87.20
2023-03-11T18:56:55.153Z,83.60
2023-03-11T18:59:21.933Z,86.90
2023-03-11T19:01:51.002Z,87.10
2023-03-11T19:04:17.842Z,86.60
2023-03-11T19:06:44.631Z,86.80
2023-03-11T19:09:11.366Z,87.30
2023-03-11T19:11:38.291Z,84.20
2023-03-11T19:14:05.136Z,86.60
2023-03-11T19:16:32.086Z,87.20
2023-03-11T19:18:58.954Z,87.50
2023-03-11T19:21:26.092Z,87.50
2023-03-11T19:23:55.184Z,87.60
2023-03-11T19:26:33.764Z,87.10
2023-03-11T19:29:04.588Z,87.00
2023-03-11T19:31:31.425Z,87.50
2023-03-11T19:33:59.427Z,85.30
2023-03-11T19:36:27.616Z,87.60
2023-03-11T19:38:54.416Z,86.70
2023-03-11T19:41:22.992Z,87.30
2023-03-11T19:43:49.934Z,87.60
2023-03-11T19:46:20.692Z,87.40
2023-03-11T19:48:47.542Z,87.50
2023-03-11T19:51:15.078Z,87.60
2023-03-11T19:53:41.861Z,87.20
2023-03-11T19:56:09.960Z,85.90
2023-03-11T19:58:36.797Z,87.00
2023-03-11T20:01:04.179Z,84.80
2023-03-11T20:03:31.352Z,87.80
2023-03-11T20:06:05.640Z,88.00
2023-03-11T20:08:36.702Z,85.00
2023-03-11T20:11:06.444Z,87.40
2023-03-11T20:13:36.110Z,87.60
2023-03-11T20:16:10.281Z,85.30
2023-03-11T20:18:37.405Z,87.10
2023-03-11T20:21:10.459Z,87.80
2023-03-11T20:23:38.664Z,85.00
2023-03-11T20:26:09.081Z,88.10
2023-03-11T20:28:36.060Z,87.60
2023-03-11T20:31:29.643Z,84.70
2023-03-11T20:33:58.040Z,86.00
2023-03-11T20:36:30.554Z,88.30
2023-03-11T20:38:57.510Z,86.50
2023-03-11T20:41:26.542Z,88.10
2023-03-11T20:43:56.265Z,85.60
2023-03-11T20:46:23.677Z,87.70
2023-03-11T20:48:50.658Z,87.80
2023-03-11T20:51:20.632Z,88.10
2023-03-11T20:53:48.993Z,87.80
2023-03-11T20:56:23.346Z,87.60
2023-03-11T20:58:51.316Z,87.40
2023-03-11T21:01:28.846Z,86.90
2023-03-11T21:03:59.635Z,84.00
2023-03-11T21:06:32.256Z,86.80
2023-03-11T21:09:03.111Z,83.30
2023-03-11T21:11:30.551Z,85.90
2023-03-11T21:13:58.086Z,86.20
2023-03-11T21:16:26.932Z,83.90
2023-03-11T21:18:54.368Z,86.70
2023-03-11T21:21:21.572Z,86.70
2023-03-11T21:23:49.431Z,86.20
2023-03-11T21:26:17.898Z,85.40
2023-03-11T21:28:46.658Z,86.60
2023-03-11T21:31:23.593Z,86.80
2023-03-11T21:33:56.386Z,86.00
2023-03-11T21:36:24.053Z,86.20
2023-03-11T21:38:51.243Z,86.60
2023-03-11T21:41:23.999Z,86.70
2023-03-11T21:43:53.164Z,86.60
2023-03-11T21:46:24.069Z,86.90
2023-03-11T21:48:51.656Z,86.60
2023-03-11T21:51:20.691Z,86.50
2023-03-11T21:53:48.496Z,86.30
2023-03-11T21:56:15.581Z,85.90
2023-03-11T21:58:42.610Z,86.50
2023-03-11T22:01:10.656Z,83.70
2023-03-11T22:03:38.438Z,86.70
2023-03-11T22:06:09.961Z,86.50
2023-03-11T22:08:37.508Z,86.30
2023-03-11T22:11:17.355Z,86.60
2023-03-11T22:13:49.664Z,85.90
2023-03-11T22:16:17.893Z,86.40
2023-03-11T22:18:45.315Z,86.10
2023-03-11T22:21:15.501Z,85.70
2023-03-11T22:23:44.659Z,86.20
2023-03-11T22:26:11.653Z,86.00
2023-03-11T22:28:38.388Z,86.80
2023-03-11T22:31:10.696Z,86.40
2023-03-11T22:33:37.681Z,85.40
2023-03-11T22:36:07.735Z,85.90
2023-03-11T22:38:36.774Z,85.90
2023-03-11T22:41:07.699Z,86.00
2023-03-11T22:43:35.577Z,85.30
2023-03-11T22:46:03.599Z,86.00
2023-03-11T22:48:32.053Z,85.50
2023-03-11T22:50:58.884Z,86.10
2023-03-11T22:53:25.713Z,85.30
2023-03-11T22:55:53.029Z,85.80
2023-03-11T22:58:20.698Z,85.30
2023-03-11T23:00:47.996Z,85.40
2023-03-11T23:03:15.203Z,85.50
2023-03-11T23:05:42.334Z,85.10
2023-03-11T23:08:16.620Z,85.50
2023-03-11T23:10:47.671Z,84.50
2023-03-11T23:13:14.786Z,85.00
2023-03-11T23:15:44.224Z,85.50
2023-03-11T23:18:12.498Z,85.30
2023-03-11T23:20:42.291Z,85.30
2023-03-11T23:23:09.914Z,85.60
2023-03-11T23:25:38.012Z,85.20
2023-03-11T23:28:06.840Z,83.30
2023-03-11T23:30:33.962Z,85.30
2023-03-11T23:33:02.834Z,85.60
2023-03-11T23:35:30.772Z,84.80
2023-03-11T23:37:57.760Z,85.00
2023-03-11T23:40:25.360Z,85.00
2023-03-11T23:45:19.667Z,84.80
2023-03-11T23:47:46.501Z,85.00
2023-03-11T23:50:13.284Z,85.20
2023-03-11T23:52:40.474Z,85.20
2023-03-11T23:55:08.355Z,85.40
2023-03-11T23:57:36.770Z,85.30
